• Join FlightAware (Why Join?)
  • Login
  • US Flag GB Flag 
05:46 EDT


 

Airport Tracker/Info


-or-


 

Live Flight TrackerFlight Track Log ✈ JST789 ✈ 22-Apr-2013 ✈ YBSU / MCY - YSSY / SYD

Flight Track Log - Related Links

Times and Time Zones

All times are in EDT time to prevent confusion due to time zone crossing. See the JST789 flight status page for this flight to view local times or setup timezone preferences in your user account.

Time Position Orientation Groundspeed Altitude Reporting Facility
EDT Latitude Longitude Course Direction KTS MPH feet Rate Location/Type
04:32 -26.5735 153.1017 117° Southeast 146 168 1,500  Level Aus ATC (RADAR)
04:32 -26.5955 153.1502 117° Southeast 227 261 3,000 1,500 Climbing Aus ATC (RADAR)
04:33 -26.6120 153.1546 167° South 239 275 3,300 2,520 Climbing Aus ATC (RADAR)
04:33 -26.6561 153.1625 171° South 274 315 5,100 2,820 Climbing Aus ATC (RADAR)
04:34 -26.7100 153.2193 137° Southeast 292 336 7,600 1,980 Climbing Aus ATC (RADAR)
04:35 -26.7421 153.2611 131° Southeast 299 344 8,100 240 Climbing Aus ATC (RADAR)
04:36 -26.7936 153.3246 132° Southeast 296 341 8,000 -120 Descending Aus ATC (RADAR)
04:36 -26.8076 153.3426 131° Southeast 297 342 8,000 120 Level Aus ATC (RADAR)
04:37 -26.8493 153.3650 154° Southeast 300 345 8,100 1,740 Climbing Aus ATC (RADAR)
04:38 -26.9386 153.3593 183° South 278 320 11,100 2,160 Climbing Aus ATC (RADAR)
04:38 -26.9664 153.3587 181° South 295 339 11,400 1,080 Climbing Aus ATC (RADAR)
04:39 -27.0210 153.3573 181° South 335 386 12,100 1,320 Climbing Aus ATC (RADAR)
04:39 -27.0904 153.3550 182° South 376 433 13,100 1,800 Climbing Aus ATC (RADAR)
04:40 -27.1532 153.3532 181° South 388 447 14,400 2,100 Climbing Aus ATC (RADAR)
04:41 -27.2548 153.3504 181° South 401 461 16,300 1,920 Climbing Aus ATC (RADAR)
04:41 -27.2831 153.3498 181° South 405 466 16,700 1,560 Climbing Aus ATC (RADAR)
04:42 -27.3513 153.3475 182° South 420 483 17,600 2,100 Climbing Aus ATC (RADAR)
04:43 -27.4717 153.2883 204° Southwest 403 464 20,400 2,400 Climbing Aus ATC (RADAR)
04:43 -27.4969 153.2734 208° Southwest 405 466 21,000 1,680 Climbing Aus ATC (RADAR)
04:44 -27.5552 153.2397 207° Southwest 406 467 21,800 1,680 Climbing Aus ATC (RADAR)
04:45 -27.6481 153.1853 207° Southwest 408 470 23,500 1,500 Climbing Aus ATC (RADAR)
04:45 -27.7078 153.1502 208° Southwest 417 480 24,100 1,020 Climbing Aus ATC (RADAR)
04:46 -27.8038 153.0939 207° Southwest 427 491 25,100 1,440 Climbing Aus ATC (RADAR)
04:47 -27.8653 153.0579 207° Southwest 424 488 26,300 1,740 Climbing Aus ATC (RADAR)
04:48 -27.9771 152.9920 207° Southwest 419 482 28,000 1,380 Climbing Aus ATC (RADAR)
04:48 -28.0028 152.9769 207° Southwest 417 480 28,200 1,200 Climbing Aus ATC (RADAR)
04:49 -28.0626 152.9414 208° Southwest 419 482 29,000 900 Climbing Aus ATC (RADAR)
04:50 -28.1720 152.8886 203° Southwest 434 499 29,700 1,260 Climbing Aus ATC (RADAR)
04:50 -28.2388 152.8592 201° Southwest 441 507 31,000 2,100 Climbing Aus ATC (RADAR)
04:51 -28.3363 152.8166 201° Southwest 405 466 32,900 1,620 Climbing Aus ATC (RADAR)
04:52 -28.3971 152.7887 202° Southwest 406 467 33,500 1,200 Climbing Aus ATC (RADAR)
04:53 -28.5454 152.7224 201° Southwest 401 461 35,300 1,080 Climbing Aus ATC (RADAR)
04:54 -28.6317 152.6842 201° Southwest 401 461 36,000 360 Climbing Aus ATC (RADAR)
04:55 -28.7349 152.6383 201° Southwest 399 459 36,000  Level Aus ATC (RADAR)
04:56 -28.8038 152.6073 202° Southwest 401 461 36,000  Level Aus ATC (RADAR)
04:56 -28.8818 152.5718 202° Southwest 404 465 36,000  Level Aus ATC (RADAR)
04:57 -28.9429 152.5442 202° Southwest 407 468 36,000  Level Aus ATC (RADAR)
04:58 -29.0923 152.4764 202° Southwest 411 473 36,100  Climbing Aus ATC (RADAR)
04:59 -29.1272 152.4602 202° Southwest 408 470 36,000 -120 Descending Aus ATC (RADAR)
04:59 -29.1892 152.4334 201° Southwest 411 473 36,000  Level Aus ATC (RADAR)
05:00 -29.3029 152.3822 201° Southwest 407 468 36,000  Level Aus ATC (RADAR)
05:01 -29.3642 152.3544 202° Southwest 408 470 36,000  Level Aus ATC (RADAR)
05:02 -29.4426 152.3187 202° Southwest 406 467 36,000  Level Aus ATC (RADAR)
05:03 -29.5468 152.2717 201° Southwest 406 467 36,000  Level Aus ATC (RADAR)
05:03 -29.5988 152.2477 202° Southwest 405 466 36,000  Level Aus ATC (RADAR)
05:03 -29.6251 152.2356 202° Southwest 406 467 36,000  Level Aus ATC (RADAR)
05:04 -29.6859 152.2077 202° Southwest 406 467 36,000 -120 Level Aus ATC (RADAR)
05:05 -29.7906 152.1591 202° Southwest 409 471 35,900 -120 Descending Aus ATC (RADAR)
05:06 -29.8527 152.1314 201° Southwest 410 472 35,900  Level Aus ATC (RADAR)
05:06 -29.9502 152.0854 202° Southwest 416 479 35,900 60 Level Aus ATC (RADAR)
05:07 -30.0129 152.0566 202° Southwest 418 481 36,000  Climbing Aus ATC (RADAR)
05:08 -30.1580 151.9924 201° Southwest 420 483 35,900 -120 Descending Aus ATC (RADAR)
05:09 -30.1853 151.9803 201° Southwest 421 484 35,900  Level Aus ATC (RADAR)
05:09 -30.2484 151.9501 202° Southwest 422 486 35,900  Level Aus ATC (RADAR)
05:10 -30.3394 151.9076 202° Southwest 425 489 35,900 60 Level Aus ATC (RADAR)
05:11 -30.4128 151.8738 202° Southwest 425 489 36,000 60 Climbing Aus ATC (RADAR)
05:12 -30.5213 151.8217 202° Southwest 425 489 36,000  Level Aus ATC (RADAR)
05:12 -30.5855 151.7919 202° Southwest 426 490 36,000 -60 Level Aus ATC (RADAR)
05:13 -30.7135 151.7314 202° Southwest 427 491 35,900 -120 Descending Aus ATC (RADAR)
05:14 -30.7409 151.7182 203° Southwest 428 493 35,900  Level Aus ATC (RADAR)
05:14 -30.8055 151.6882 202° Southwest 429 494 35,900 60 Level Aus ATC (RADAR)
05:15 -30.9160 151.6358 202° Southwest 431 496 36,000  Climbing Aus ATC (RADAR)
05:16 -30.9804 151.6063 201° Southwest 429 494 35,900  Descending Aus ATC (RADAR)
05:17 -31.0816 151.5579 202° Southwest 430 495 36,000 60 Climbing Aus ATC (RADAR)
05:17 -31.1458 151.5277 202° Southwest 428 493 36,000 -60 Level Aus ATC (RADAR)
05:18 -31.2733 151.4677 202° Southwest 425 489 35,900 -120 Descending Aus ATC (RADAR)
05:19 -31.3004 151.4539 204° Southwest 426 490 35,900  Level Aus ATC (RADAR)
05:19 -31.3643 151.4246 201° Southwest 424 488 35,900 60 Level Aus ATC (RADAR)
05:20 -31.4685 151.3763 202° Southwest 425 489 36,000  Climbing Aus ATC (RADAR)
05:21 -31.5395 151.3446 201° Southwest 425 489 35,900  Descending Aus ATC (RADAR)
05:22 -31.6413 151.2996 201° Southwest 426 490 36,000  Climbing Aus ATC (RADAR)
05:22 -31.7063 151.2706 201° Southwest 428 493 35,900  Descending Aus ATC (RADAR)
05:24 -31.9211 151.1738 201° Southwest 433 498 36,000  Climbing Aus ATC (RADAR)
05:25 -31.9491 151.1608 201° Southwest 433 498 36,000  Level Aus ATC (RADAR)
05:25 -32.0147 151.1314 201° Southwest 432 497 36,000 -120 Level Aus ATC (RADAR)
05:26 -32.1171 151.0853 201° Southwest 429 494 35,900  Descending Aus ATC (RADAR)
05:27 -32.1822 151.0566 200° South 428 493 36,000 -300 Climbing Aus ATC (RADAR)
05:28 -32.2834 151.0104 201° Southwest 423 487 35,500 -1,080 Descending Aus ATC (RADAR)
05:28 -32.3655 150.9760 200° South 415 478 34,200 -2,520 Descending Aus ATC (RADAR)
05:29 -32.4767 150.9741 181° South 429 494 31,300 -3,300 Descending Aus ATC (RADAR)
05:30 -32.5494 150.9719 181° South 439 505 29,300 -2,940 Descending Aus ATC (RADAR)
05:31 -32.6564 150.9692 181° South 446 513 27,100 -2,640 Descending Aus ATC (RADAR)
05:31 -32.6869 150.9682 182° South 443 510 26,400 -2,520 Descending Aus ATC (RADAR)
05:32 -32.7578 150.9659 182° South 439 505 25,000 -2,580 Descending Aus ATC (RADAR)
05:32 -32.8671 150.9789 174° South 428 493 22,600 -2,580 Descending Aus ATC (RADAR)
05:34 -33.0286 151.0078 171° South 408 470 19,200 -2,520 Descending Aus ATC (RADAR)
05:34 -33.0569 151.0127 172° South 405 466 18,600 -2,400 Descending Aus ATC (RADAR)
05:35 -33.1215 151.0245 171° South 397 457 17,200 -1,560 Descending Aus ATC (RADAR)
05:36 -33.2195 151.0417 172° South 378 435 16,300 -1,020 Descending Aus ATC (RADAR)
05:36 -33.2807 151.0526 172° South 375 432 15,700 -1,440 Descending Aus ATC (RADAR)
05:37 -33.3767 151.0712 171° South 371 427 14,200 -2,100 Descending Aus ATC (RADAR)
05:38 -33.4992 151.0948 171° South 368 423 11,300 -2,340 Descending Aus ATC (RADAR)
05:39 -33.5616 151.1070 171° South 347 399 10,000 -2,160 Descending Aus ATC (RADAR)
05:39 -33.5856 151.1112 172° South 342 394 9,400 -1,860 Descending Aus ATC (RADAR)
05:40 -33.6406 151.1223 170° South 333 383 8,500 -1,020 Descending Aus ATC (RADAR)
05:41 -33.7197 151.1484 165° South 343 395 8,000 -480 Descending Aus ATC (RADAR)
05:41 -33.7683 151.1843 149° Southeast 348 400 7,800 -660 Descending Aus ATC (RADAR)
05:42 -33.8420 151.2383 149° Southeast 340 391 7,100 -720 Descending Aus ATC (RADAR)
05:42 -33.8626 151.2535 148° Southeast 338 389 7,000 -660 Descending Aus ATC (RADAR)
05:43 -33.9292 151.3024 149° Southeast 318 366 6,400 -660 Descending Aus ATC (RADAR)
05:44 -33.9724 151.3286 153° Southeast 292 336 6,100 -480 Descending Aus ATC (RADAR)
05:44 -33.9917 151.3326 170° South 281 323 6,000 -840 Descending Aus ATC (RADAR)
05:45 -34.0360 151.3441 168° South 271 312 5,400 -1,260 Descending Aus ATC (RADAR)
05:45 -34.1008 151.3529 174° South 272 313 4,200 -1,080 Descending Aus ATC (RADAR)
05:46 -34.1223 151.3160 235° Southwest 232 267 3,900 -960 Descending Aus ATC (RADAR)
05:47 -34.0987 151.2565 296° West 205 236 2,700 -1,140 Descending Aus ATC (RADAR)
05:47 -34.0860 151.2448 322° Northwest 203 234 2,400 -1,020 Descending Aus ATC (RADAR)
05:48 -34.0409 151.2123 329° Northwest 188 216 1,400 -960 Descending Aus ATC (RADAR)
05:49 -34.0060 151.2030 347° North 146 168 700 -780 Descending Aus ATC (RADAR)
05:49 -33.9967 151.2005 348° North 140 161 600 -600 Descending Aus ATC (RADAR)
05:50 -33.9750 151.1950 348° North 137 158 200 -420 Descending Aus ATC (RADAR)
05:51 -33.9541 151.1891 347° North 84 97 100 -180 Descending Aus ATC (RADAR)
05:53 -33.9461 151.1772 309° West  Level Estimated
06:00 -33.9461 151.1772 121° Southeast  Level Estimated
06:01 -33.9461 151.1772 121° Southeast  Level Estimated